Terminal Aerodrome Forecast
Issued by NWS

Home | Current Version | Previous Version | Graphics & Text | Print | Product List | Glossary On
Versions: 1 2 3 4 5 6 7 8 9 10 11 12 13 14 15
000
FTUS43 KBIS 270500
TAFMOT
TAF
KMOT 270539Z 2706/2806 16004KT P6SM SCT110 SCT150
     FM271300 20006KT P6SM FEW300
     FM271700 23006KT P6SM SKC
     FM280000 27005KT P6SM SKC
     FM280300 32006KT P6SM FEW015 SCT250=

USA.gov is the U.S. government's official web portal to all federal, state and local government web resources and services.